createdAt,value
2024-04-03T00:00:32.951Z,13.00
2024-04-03T00:10:33.148Z,12.90
2024-04-03T00:20:30.951Z,12.90
2024-04-03T00:30:28.945Z,12.80
2024-04-03T00:40:26.965Z,12.80
2024-04-03T00:50:24.993Z,12.80
2024-04-03T01:00:22.998Z,12.80
2024-04-03T01:10:20.966Z,12.70
2024-04-03T01:20:19.057Z,12.70
2024-04-03T01:30:16.983Z,12.60
2024-04-03T01:40:15.141Z,12.50
2024-04-03T01:50:12.999Z,12.50
2024-04-03T02:00:11.009Z,12.40
2024-04-03T02:10:09.024Z,12.40
2024-04-03T02:20:07.033Z,12.40
2024-04-03T02:30:05.000Z,12.30
2024-04-03T02:40:03.054Z,12.30
2024-04-03T02:50:01.090Z,12.40
2024-04-03T02:59:59.069Z,12.40
2024-04-03T03:09:57.088Z,12.30
2024-04-03T03:19:55.067Z,12.30
2024-04-03T03:29:53.172Z,12.30
2024-04-03T03:39:51.091Z,12.20
2024-04-03T03:49:49.070Z,12.30
2024-04-03T03:59:47.053Z,12.20
2024-04-03T04:09:45.083Z,12.30
2024-04-03T04:19:43.107Z,12.20
2024-04-03T04:29:41.115Z,12.20
2024-04-03T04:39:39.098Z,12.20
2024-04-03T04:49:37.176Z,12.20
2024-04-03T04:59:35.110Z,12.10
2024-04-03T05:09:33.130Z,12.00
2024-04-03T05:19:31.156Z,12.00
2024-04-03T05:29:29.114Z,12.00
2024-04-03T05:39:27.155Z,12.00
2024-04-03T05:49:25.126Z,12.10
2024-04-03T05:59:23.179Z,12.20
2024-04-03T06:09:21.182Z,12.30
2024-04-03T06:19:19.144Z,12.40
2024-04-03T06:29:17.212Z,12.50
2024-04-03T06:39:15.181Z,12.70
2024-04-03T06:49:13.257Z,12.70
2024-04-03T06:59:11.306Z,12.70
2024-04-03T07:09:09.194Z,12.70
2024-04-03T07:19:07.336Z,12.80
2024-04-03T07:29:05.182Z,12.90
2024-04-03T07:39:03.207Z,13.00
2024-04-03T07:49:01.195Z,13.20
2024-04-03T07:58:59.273Z,13.50
2024-04-03T08:08:57.312Z,13.60
2024-04-03T08:18:55.260Z,13.80
2024-04-03T08:28:53.246Z,13.90
2024-04-03T08:38:51.255Z,13.70
2024-04-03T08:48:49.246Z,13.70
2024-04-03T08:58:47.230Z,13.90
2024-04-03T09:08:45.282Z,14.30
2024-04-03T09:18:43.254Z,14.70
2024-04-03T09:28:41.280Z,14.90
2024-04-03T09:38:39.285Z,14.70
2024-04-03T09:48:37.284Z,14.70
2024-04-03T09:58:35.277Z,14.70
2024-04-03T10:08:33.308Z,14.90
2024-04-03T10:18:31.309Z,15.00
2024-04-03T10:28:29.275Z,15.20
2024-04-03T10:38:27.311Z,15.40
2024-04-03T10:48:25.407Z,15.50
2024-04-03T10:58:23.314Z,15.60
2024-04-03T11:08:21.348Z,15.50
2024-04-03T11:18:19.334Z,15.30
2024-04-03T11:28:18.447Z,15.20
2024-04-03T11:38:16.364Z,15.20
2024-04-03T11:48:14.372Z,15.60
2024-04-03T11:58:12.386Z,15.80
2024-04-03T12:08:11.036Z,15.70
2024-04-03T12:18:09.381Z,15.50
2024-04-03T12:28:07.385Z,15.50
2024-04-03T12:38:21.104Z,15.30
2024-04-03T12:48:05.418Z,15.20
2024-04-03T12:58:03.358Z,15.10
2024-04-03T13:08:01.419Z,15.00
2024-04-03T13:17:59.410Z,14.90
2024-04-03T13:27:57.425Z,14.80
2024-04-03T13:37:55.453Z,14.60
2024-04-03T13:47:53.441Z,14.60
2024-04-03T13:57:51.439Z,14.40
2024-04-03T14:07:49.446Z,14.40
2024-04-03T14:17:47.496Z,14.30
2024-04-03T14:27:45.458Z,14.30
2024-04-03T14:37:43.464Z,14.40
2024-04-03T14:47:41.539Z,14.40
2024-04-03T14:57:39.456Z,14.80
2024-04-03T15:07:37.567Z,15.50
2024-04-03T15:17:35.534Z,16.10
2024-04-03T15:27:33.545Z,16.20
2024-04-03T15:37:31.661Z,15.90
2024-04-03T15:47:29.546Z,15.70
2024-04-03T15:57:27.520Z,15.80
2024-04-03T16:07:25.526Z,15.80
2024-04-03T16:17:23.545Z,15.70
2024-04-03T16:27:21.549Z,15.50
2024-04-03T16:37:19.608Z,15.50
2024-04-03T16:47:17.578Z,15.50
2024-04-03T16:57:15.555Z,15.40
2024-04-03T17:07:13.578Z,15.30
2024-04-03T17:17:11.579Z,15.10
2024-04-03T17:27:09.582Z,14.90
2024-04-03T17:37:09.039Z,14.70
2024-04-03T17:47:11.152Z,14.70
2024-04-03T17:57:07.604Z,14.70
2024-04-03T18:07:05.674Z,14.70
2024-04-03T18:17:03.616Z,14.60
2024-04-03T18:27:01.616Z,14.50
2024-04-03T18:36:59.636Z,14.30
2024-04-03T18:46:57.646Z,13.90
2024-04-03T18:56:55.622Z,13.90
2024-04-03T19:06:53.648Z,13.80
2024-04-03T19:16:51.639Z,13.60
2024-04-03T19:26:49.659Z,13.50
2024-04-03T19:36:47.713Z,13.40
2024-04-03T19:46:45.723Z,13.20
2024-04-03T19:56:43.664Z,13.00
2024-04-03T20:06:41.725Z,12.80
2024-04-03T20:16:39.691Z,12.60
2024-04-03T20:26:37.695Z,12.70
2024-04-03T20:36:35.708Z,12.80
2024-04-03T20:46:33.726Z,13.00
2024-04-03T20:56:33.114Z,13.00
2024-04-03T21:06:31.745Z,13.00
2024-04-03T21:16:29.715Z,12.90
2024-04-03T21:26:27.741Z,12.80
2024-04-03T21:36:25.748Z,12.70
2024-04-03T21:46:23.751Z,12.70
2024-04-03T21:56:21.760Z,12.50
2024-04-03T22:06:19.768Z,12.40
2024-04-03T22:16:17.727Z,12.30
2024-04-03T22:26:15.773Z,12.20
2024-04-03T22:36:13.791Z,12.10
2024-04-03T22:46:11.790Z,12.10
2024-04-03T22:56:09.777Z,12.00
2024-04-03T23:06:07.812Z,11.90
2024-04-03T23:16:05.861Z,11.70
2024-04-03T23:26:03.800Z,11.60
2024-04-03T23:36:01.861Z,11.60
2024-04-03T23:45:59.798Z,11.60
2024-04-03T23:55:57.808Z,11.60
